TimeEST,TemperatureF,Dew PointF,Humidity,Sea Level PressureIn,VisibilityMPH,Wind Direction,Wind SpeedMPH,Gust SpeedMPH,PrecipitationIn,Events,Conditions,WindDirDegrees,DateUTC
12:56 AM,39.0,35.1,86,30.07,10.0,Calm,Calm,-,N/A,,Clear,0,2013-02-05 05:56:00
1:56 AM,37.0,33.1,86,30.04,10.0,Calm,Calm,-,N/A,,Clear,0,2013-02-05 06:56:00
2:56 AM,37.9,34.0,86,30.04,10.0,Calm,Calm,-,N/A,,Clear,0,2013-02-05 07:56:00
3:14 AM,35.6,35.6,100,30.03,2.0,Calm,Calm,-,N/A,,Clear,0,2013-02-05 08:14:00
3:23 AM,37.4,35.6,93,30.03,9.0,Calm,Calm,-,N/A,,Clear,0,2013-02-05 08:23:00
3:56 AM,37.0,33.1,86,30.02,10.0,Calm,Calm,-,N/A,,Clear,0,2013-02-05 08:56:00
4:56 AM,37.9,34.0,86,30.03,10.0,Calm,Calm,-,N/A,,Clear,0,2013-02-05 09:56:00
5:45 AM,35.6,33.8,93,30.03,3.0,Calm,Calm,-,N/A,,Partly Cloudy,0,2013-02-05 10:45:00
5:56 AM,35.1,32.0,89,30.04,10.0,WSW,4.6,-,N/A,,Partly Cloudy,250,2013-02-05 10:56:00
6:56 AM,37.0,33.1,86,30.06,10.0,SW,5.8,-,N/A,,Scattered Clouds,230,2013-02-05 11:56:00
7:56 AM,44.1,39.9,85,30.08,10.0,WSW,5.8,-,N/A,,Mostly Cloudy,250,2013-02-05 12:56:00
8:56 AM,48.9,43.0,80,30.09,10.0,SW,5.8,-,N/A,,Scattered Clouds,230,2013-02-05 13:56:00
9:56 AM,57.0,43.0,59,30.10,10.0,West,10.4,-,N/A,,Scattered Clouds,280,2013-02-05 14:56:00
10:56 AM,61.0,45.0,56,30.09,10.0,WSW,15.0,-,N/A,,Scattered Clouds,250,2013-02-05 15:56:00
11:56 AM,64.9,45.0,48,30.07,10.0,West,15.0,-,N/A,,Scattered Clouds,260,2013-02-05 16:56:00
12:56 PM,66.9,44.1,44,30.03,10.0,West,8.1,-,N/A,,Scattered Clouds,260,2013-02-05 17:56:00
1:56 PM,70.0,42.1,36,30.00,10.0,West,8.1,19.6,N/A,,Scattered Clouds,270,2013-02-05 18:56:00
2:56 PM,70.0,43.0,38,29.99,10.0,WNW,9.2,-,N/A,,Scattered Clouds,290,2013-02-05 19:56:00
3:56 PM,70.0,44.1,39,29.98,10.0,SW,10.4,17.3,N/A,,Scattered Clouds,230,2013-02-05 20:56:00
4:56 PM,64.9,48.0,54,29.99,10.0,SW,9.2,-,N/A,,Clear,220,2013-02-05 21:56:00
5:56 PM,61.0,48.0,62,29.99,10.0,SSW,6.9,-,N/A,,Clear,210,2013-02-05 22:56:00
6:56 PM,57.9,48.0,70,30.01,10.0,SSW,6.9,-,N/A,,Clear,210,2013-02-05 23:56:00
7:56 PM,57.0,46.9,69,30.01,10.0,SSW,6.9,-,N/A,,Clear,210,2013-02-06 00:56:00
8:56 PM,55.9,46.9,72,30.03,10.0,SW,6.9,-,N/A,,Clear,230,2013-02-06 01:56:00
9:56 PM,52.0,46.0,80,30.04,10.0,SW,4.6,-,N/A,,Clear,220,2013-02-06 02:56:00
10:56 PM,51.1,45.0,80,30.05,10.0,SW,4.6,-,N/A,,Clear,220,2013-02-06 03:56:00
11:56 PM,48.0,43.0,83,30.05,10.0,Calm,Calm,-,N/A,,Clear,0,2013-02-06 04:56:00